sensor_id;sensor_type;location;lat;lon;timestamp;pressure;altitude;pressure_sealevel;temperature;humidity
48530;BME280;34927;37.302;-121.982;2023-02-17T00:00:22;101379.0;;;23.89;24.38
48530;BME280;34927;37.302;-121.982;2023-02-17T00:01:28;101383.0;;;23.89;24.29
48530;BME280;34927;37.302;-121.982;2023-02-17T00:02:31;101383.0;;;23.94;24.25
48530;BME280;34927;37.302;-121.982;2023-02-17T00:03:36;101383.0;;;23.87;24.33
48530;BME280;34927;37.302;-121.982;2023-02-17T00:04:42;101379.0;;;23.88;24.46
48530;BME280;34927;37.302;-121.982;2023-02-17T00:05:47;101379.0;;;23.87;24.31
48530;BME280;34927;37.302;-121.982;2023-02-17T00:06:52;101381.0;;;23.89;24.21
48530;BME280;34927;37.302;-121.982;2023-02-17T00:07:56;101383.0;;;23.85;24.10
48530;BME280;34927;37.302;-121.982;2023-02-17T00:09:02;101381.0;;;23.80;24.31
48530;BME280;34927;37.302;-121.982;2023-02-17T00:10:08;101381.0;;;23.87;24.53
48530;BME280;34927;37.302;-121.982;2023-02-17T00:11:12;101377.0;;;23.86;24.25
48530;BME280;34927;37.302;-121.982;2023-02-17T00:12:17;101379.0;;;23.75;24.67
48530;BME280;34927;37.302;-121.982;2023-02-17T00:13:21;101378.0;;;23.84;24.36
48530;BME280;34927;37.302;-121.982;2023-02-17T00:14:26;101377.0;;;23.81;24.24
48530;BME280;34927;37.302;-121.982;2023-02-17T00:15:32;101379.0;;;23.73;24.28
48530;BME280;34927;37.302;-121.982;2023-02-17T00:16:37;101382.0;;;23.74;24.51
48530;BME280;34927;37.302;-121.982;2023-02-17T00:17:41;101385.0;;;23.81;24.53
48530;BME280;34927;37.302;-121.982;2023-02-17T00:18:51;101388.0;;;23.83;24.74
48530;BME280;34927;37.302;-121.982;2023-02-17T00:19:57;101389.0;;;23.82;24.85
48530;BME280;34927;37.302;-121.982;2023-02-17T00:21:11;101388.0;;;23.84;24.92
48530;BME280;34927;37.302;-121.982;2023-02-17T00:22:17;101386.0;;;23.95;24.96
48530;BME280;34927;37.302;-121.982;2023-02-17T00:23:21;101385.0;;;23.96;25.16
48530;BME280;34927;37.302;-121.982;2023-02-17T00:24:28;101386.0;;;23.97;25.09
48530;BME280;34927;37.302;-121.982;2023-02-17T00:25:32;101387.0;;;23.95;25.18
48530;BME280;34927;37.302;-121.982;2023-02-17T00:26:36;101382.0;;;23.93;25.21
48530;BME280;34927;37.302;-121.982;2023-02-17T00:27:41;101380.0;;;23.94;25.47
48530;BME280;34927;37.302;-121.982;2023-02-17T00:28:47;101383.0;;;23.91;25.63
48530;BME280;34927;37.302;-121.982;2023-02-17T00:29:52;101378.0;;;23.93;25.98
48530;BME280;34927;37.302;-121.982;2023-02-17T00:30:56;101381.0;;;23.71;26.12
48530;BME280;34927;37.302;-121.982;2023-02-17T00:32:03;101380.0;;;23.70;26.51
48530;BME280;34927;37.302;-121.982;2023-02-17T00:33:06;101382.0;;;23.71;26.75
48530;BME280;34927;37.302;-121.982;2023-02-17T00:34:12;101384.0;;;23.66;26.86
48530;BME280;34927;37.302;-121.982;2023-02-17T00:35:16;101387.0;;;23.72;26.82
48530;BME280;34927;37.302;-121.982;2023-02-17T00:36:22;101382.0;;;23.77;26.89
48530;BME280;34927;37.302;-121.982;2023-02-17T00:37:26;101384.0;;;23.92;26.49
48530;BME280;34927;37.302;-121.982;2023-02-17T00:38:32;101382.0;;;23.90;26.59
48530;BME280;34927;37.302;-121.982;2023-02-17T00:39:37;101382.0;;;23.89;26.99
48530;BME280;34927;37.302;-121.982;2023-02-17T00:40:41;101381.0;;;23.94;26.85
48530;BME280;34927;37.302;-121.982;2023-02-17T00:41:47;101382.0;;;23.97;26.76
48530;BME280;34927;37.302;-121.982;2023-02-17T00:42:52;101383.0;;;24.01;26.77
48530;BME280;34927;37.302;-121.982;2023-02-17T00:43:57;101385.0;;;24.08;26.55
48530;BME280;34927;37.302;-121.982;2023-02-17T00:45:01;101386.0;;;24.09;26.56
48530;BME280;34927;37.302;-121.982;2023-02-17T00:46:07;101384.0;;;24.07;26.78
48530;BME280;34927;37.302;-121.982;2023-02-17T00:47:12;101383.0;;;24.18;26.60
48530;BME280;34927;37.302;-121.982;2023-02-17T00:48:16;101384.0;;;24.06;26.94
48530;BME280;34927;37.302;-121.982;2023-02-17T00:49:25;101382.0;;;24.19;26.77
48530;BME280;34927;37.302;-121.982;2023-02-17T00:50:32;101379.0;;;24.29;26.47
48530;BME280;34927;37.302;-121.982;2023-02-17T00:51:36;101379.0;;;24.23;26.64
48530;BME280;34927;37.302;-121.982;2023-02-17T00:52:42;101377.0;;;24.38;26.31
48530;BME280;34927;37.302;-121.982;2023-02-17T00:53:47;101380.0;;;24.29;26.57
48530;BME280;34927;37.302;-121.982;2023-02-17T00:54:51;101382.0;;;24.41;26.43
48530;BME280;34927;37.302;-121.982;2023-02-17T00:55:57;101380.0;;;24.44;26.55
48530;BME280;34927;37.302;-121.982;2023-02-17T00:57:02;101382.0;;;24.41;26.58
48530;BME280;34927;37.302;-121.982;2023-02-17T00:58:07;101380.0;;;24.42;26.60
48530;BME280;34927;37.302;-121.982;2023-02-17T00:59:12;101381.0;;;24.43;26.71
48530;BME280;34927;37.302;-121.982;2023-02-17T01:00:17;101383.0;;;24.47;26.55
48530;BME280;34927;37.302;-121.982;2023-02-17T01:01:21;101379.0;;;24.51;26.80
48530;BME280;34927;37.302;-121.982;2023-02-17T01:02:26;101379.0;;;24.52;26.77
48530;BME280;34927;37.302;-121.982;2023-02-17T01:03:31;101384.0;;;24.54;26.49
48530;BME280;34927;37.302;-121.982;2023-02-17T01:04:37;101381.0;;;24.58;26.54
48530;BME280;34927;37.302;-121.982;2023-02-17T01:05:43;101381.0;;;24.67;26.38
48530;BME280;34927;37.302;-121.982;2023-02-17T01:06:47;101385.0;;;24.58;26.62
48530;BME280;34927;37.302;-121.982;2023-02-17T01:07:51;101384.0;;;24.47;26.74
48530;BME280;34927;37.302;-121.982;2023-02-17T01:08:56;101386.0;;;24.48;26.81
48530;BME280;34927;37.302;-121.982;2023-02-17T01:10:02;101387.0;;;24.48;26.83
48530;BME280;34927;37.302;-121.982;2023-02-17T01:11:06;101387.0;;;24.37;27.37
48530;BME280;34927;37.302;-121.982;2023-02-17T01:12:12;101387.0;;;24.42;26.99
48530;BME280;34927;37.302;-121.982;2023-02-17T01:13:18;101385.0;;;24.42;27.12
48530;BME280;34927;37.302;-121.982;2023-02-17T01:14:22;101387.0;;;24.30;27.22
48530;BME280;34927;37.302;-121.982;2023-02-17T01:15:27;101386.0;;;24.20;27.50
48530;BME280;34927;37.302;-121.982;2023-02-17T01:16:33;101385.0;;;24.24;27.30
48530;BME280;34927;37.302;-121.982;2023-02-17T01:17:37;101385.0;;;24.35;27.22
48530;BME280;34927;37.302;-121.982;2023-02-17T01:18:41;101385.0;;;24.38;27.11
48530;BME280;34927;37.302;-121.982;2023-02-17T01:19:46;101384.0;;;24.31;27.13
48530;BME280;34927;37.302;-121.982;2023-02-17T01:20:52;101385.0;;;24.38;27.04
48530;BME280;34927;37.302;-121.982;2023-02-17T01:21:56;101386.0;;;24.46;26.95
48530;BME280;34927;37.302;-121.982;2023-02-17T01:23:02;101385.0;;;24.32;27.26
48530;BME280;34927;37.302;-121.982;2023-02-17T01:24:08;101383.0;;;24.39;27.10
48530;BME280;34927;37.302;-121.982;2023-02-17T01:25:11;101384.0;;;24.37;27.18
48530;BME280;34927;37.302;-121.982;2023-02-17T01:26:19;101384.0;;;24.28;27.35
48530;BME280;34927;37.302;-121.982;2023-02-17T01:27:22;101387.0;;;24.17;27.57
48530;BME280;34927;37.302;-121.982;2023-02-17T01:28:26;101390.0;;;23.95;27.87
48530;BME280;34927;37.302;-121.982;2023-02-17T01:29:32;101389.0;;;23.94;27.92
48530;BME280;34927;37.302;-121.982;2023-02-17T01:30:37;101389.0;;;23.99;27.62
48530;BME280;34927;37.302;-121.982;2023-02-17T01:31:41;101388.0;;;24.09;27.60
48530;BME280;34927;37.302;-121.982;2023-02-17T01:32:46;101387.0;;;23.98;27.76
48530;BME280;34927;37.302;-121.982;2023-02-17T01:33:52;101388.0;;;23.93;27.77
48530;BME280;34927;37.302;-121.982;2023-02-17T01:34:56;101385.0;;;24.00;27.69
48530;BME280;34927;37.302;-121.982;2023-02-17T01:36:02;101386.0;;;23.97;27.85
48530;BME280;34927;37.302;-121.982;2023-02-17T01:37:07;101388.0;;;24.08;27.80
48530;BME280;34927;37.302;-121.982;2023-02-17T01:38:12;101390.0;;;24.02;27.86
48530;BME280;34927;37.302;-121.982;2023-02-17T01:39:18;101393.0;;;23.82;27.29
48530;BME280;34927;37.302;-121.982;2023-02-17T01:40:22;101395.0;;;23.93;26.79
48530;BME280;34927;37.302;-121.982;2023-02-17T01:41:28;101392.0;;;24.10;26.40
48530;BME280;34927;37.302;-121.982;2023-02-17T01:42:31;101394.0;;;24.27;26.00
48530;BME280;34927;37.302;-121.982;2023-02-17T01:43:37;101395.0;;;24.54;25.60
48530;BME280;34927;37.302;-121.982;2023-02-17T01:45:58;101391.0;;;25.00;24.64
48530;BME280;34927;37.302;-121.982;2023-02-17T01:47:02;101389.0;;;25.28;24.24
48530;BME280;34927;37.302;-121.982;2023-02-17T01:48:09;101388.0;;;25.47;23.89
48530;BME280;34927;37.302;-121.982;2023-02-17T01:49:24;101389.0;;;25.66;23.60
48530;BME280;34927;37.302;-121.982;2023-02-17T01:50:34;101387.0;;;25.85;23.25
48530;BME280;34927;37.302;-121.982;2023-02-17T01:51:42;101388.0;;;25.99;22.97
48530;BME280;34927;37.302;-121.982;2023-02-17T01:52:46;101388.0;;;26.17;22.81
48530;BME280;34927;37.302;-121.982;2023-02-17T01:53:55;101387.0;;;26.28;22.69
48530;BME280;34927;37.302;-121.982;2023-02-17T01:55:04;101384.0;;;26.30;22.50
48530;BME280;34927;37.302;-121.982;2023-02-17T01:56:13;101384.0;;;26.15;22.72
48530;BME280;34927;37.302;-121.982;2023-02-17T01:57:20;101384.0;;;26.05;23.09
48530;BME280;34927;37.302;-121.982;2023-02-17T01:58:28;101387.0;;;25.87;23.43
48530;BME280;34927;37.302;-121.982;2023-02-17T01:59:32;101386.0;;;25.78;23.91
48530;BME280;34927;37.302;-121.982;2023-02-17T02:00:37;101388.0;;;25.60;24.23
48530;BME280;34927;37.302;-121.982;2023-02-17T02:01:42;101390.0;;;25.41;24.05
48530;BME280;34927;37.302;-121.982;2023-02-17T02:02:48;101388.0;;;25.28;23.72
48530;BME280;34927;37.302;-121.982;2023-02-17T02:03:53;101390.0;;;25.38;23.86
48530;BME280;34927;37.302;-121.982;2023-02-17T02:04:56;101391.0;;;25.49;23.71
48530;BME280;34927;37.302;-121.982;2023-02-17T02:06:04;101388.0;;;25.67;23.50
48530;BME280;34927;37.302;-121.982;2023-02-17T02:07:17;101386.0;;;25.86;23.09
48530;BME280;34927;37.302;-121.982;2023-02-17T02:08:22;101387.0;;;26.09;22.94
48530;BME280;34927;37.302;-121.982;2023-02-17T02:09:31;101386.0;;;26.29;22.65
48530;BME280;34927;37.302;-121.982;2023-02-17T02:10:36;101386.0;;;26.43;22.50
48530;BME280;34927;37.302;-121.982;2023-02-17T02:11:42;101384.0;;;26.58;22.32
48530;BME280;34927;37.302;-121.982;2023-02-17T02:12:46;101385.0;;;26.58;21.50
48530;BME280;34927;37.302;-121.982;2023-02-17T02:13:51;101385.0;;;26.45;21.55
48530;BME280;34927;37.302;-121.982;2023-02-17T02:14:59;101388.0;;;26.28;21.84
48530;BME280;34927;37.302;-121.982;2023-02-17T02:16:12;101388.0;;;26.20;22.03
48530;BME280;34927;37.302;-121.982;2023-02-17T02:17:29;101394.0;;;25.76;22.44
48530;BME280;34927;37.302;-121.982;2023-02-17T02:18:44;101393.0;;;25.61;22.57
48530;BME280;34927;37.302;-121.982;2023-02-17T02:20:17;101393.0;;;25.22;22.72
48530;BME280;34927;37.302;-121.982;2023-02-17T02:21:44;101394.0;;;25.04;23.03
48530;BME280;34927;37.302;-121.982;2023-02-17T02:23:12;101397.0;;;25.00;22.72
48530;BME280;34927;37.302;-121.982;2023-02-17T02:24:30;101394.0;;;25.08;22.77
48530;BME280;34927;37.302;-121.982;2023-02-17T02:26:01;101396.0;;;25.30;22.64
48530;BME280;34927;37.302;-121.982;2023-02-17T02:28:35;101394.0;;;25.74;22.17
48530;BME280;34927;37.302;-121.982;2023-02-17T02:30:00;101397.0;;;25.93;21.91
48530;BME280;34927;37.302;-121.982;2023-02-17T02:31:22;101394.0;;;26.11;21.73
48530;BME280;34927;37.302;-121.982;2023-02-17T02:32:44;101395.0;;;26.17;21.46
48530;BME280;34927;37.302;-121.982;2023-02-17T02:33:56;101396.0;;;26.03;21.62
48530;BME280;34927;37.302;-121.982;2023-02-17T02:35:06;101396.0;;;26.00;21.63
48530;BME280;34927;37.302;-121.982;2023-02-17T02:36:16;101395.0;;;25.74;21.93
48530;BME280;34927;37.302;-121.982;2023-02-17T02:37:25;101393.0;;;25.42;22.12
48530;BME280;34927;37.302;-121.982;2023-02-17T02:38:38;101388.0;;;25.27;22.50
48530;BME280;34927;37.302;-121.982;2023-02-17T02:39:45;101387.0;;;25.09;22.58
48530;BME280;34927;37.302;-121.982;2023-02-17T02:40:55;101384.0;;;24.98;22.79
48530;BME280;34927;37.302;-121.982;2023-02-17T02:42:05;101385.0;;;24.87;23.24
48530;BME280;34927;37.302;-121.982;2023-02-17T02:43:12;101386.0;;;24.94;23.26
48530;BME280;34927;37.302;-121.982;2023-02-17T02:44:19;101386.0;;;24.87;23.52
48530;BME280;34927;37.302;-121.982;2023-02-17T02:45:26;101382.0;;;24.77;23.66
48530;BME280;34927;37.302;-121.982;2023-02-17T02:46:32;101388.0;;;24.83;23.77
48530;BME280;34927;37.302;-121.982;2023-02-17T02:47:46;101389.0;;;24.97;23.47
48530;BME280;34927;37.302;-121.982;2023-02-17T02:48:52;101383.0;;;25.10;23.39
48530;BME280;34927;37.302;-121.982;2023-02-17T02:49:56;101382.0;;;25.27;23.28
48530;BME280;34927;37.302;-121.982;2023-02-17T02:51:14;101384.0;;;25.53;23.10
48530;BME280;34927;37.302;-121.982;2023-02-17T02:52:28;101383.0;;;25.84;22.83
48530;BME280;34927;37.302;-121.982;2023-02-17T02:53:49;101382.0;;;26.02;22.61
48530;BME280;34927;37.302;-121.982;2023-02-17T02:55:03;101375.0;;;26.03;22.74
48530;BME280;34927;37.302;-121.982;2023-02-17T02:56:23;101375.0;;;25.93;23.02
48530;BME280;34927;37.302;-121.982;2023-02-17T02:57:38;101372.0;;;25.70;23.30
48530;BME280;34927;37.302;-121.982;2023-02-17T02:58:59;101374.0;;;25.64;23.34
48530;BME280;34927;37.302;-121.982;2023-02-17T03:00:13;101369.0;;;25.45;23.44
48530;BME280;34927;37.302;-121.982;2023-02-17T03:01:28;101369.0;;;25.28;23.83
48530;BME280;34927;37.302;-121.982;2023-02-17T03:02:39;101369.0;;;25.20;24.03
48530;BME280;34927;37.302;-121.982;2023-02-17T03:03:52;101369.0;;;25.11;24.29
48530;BME280;34927;37.302;-121.982;2023-02-17T03:05:08;101367.0;;;25.05;24.38
48530;BME280;34927;37.302;-121.982;2023-02-17T03:06:21;101376.0;;;25.07;23.94
48530;BME280;34927;37.302;-121.982;2023-02-17T03:07:36;101374.0;;;25.24;23.95
48530;BME280;34927;37.302;-121.982;2023-02-17T03:08:45;101363.0;;;25.43;23.72
48530;BME280;34927;37.302;-121.982;2023-02-17T03:09:53;101365.0;;;25.51;23.01
48530;BME280;34927;37.302;-121.982;2023-02-17T03:10:57;101364.0;;;25.62;22.66
48530;BME280;34927;37.302;-121.982;2023-02-17T03:12:02;101365.0;;;25.74;22.45
48530;BME280;34927;37.302;-121.982;2023-02-17T03:13:07;101364.0;;;25.79;22.25
48530;BME280;34927;37.302;-121.982;2023-02-17T03:14:13;101365.0;;;25.80;22.07
48530;BME280;34927;37.302;-121.982;2023-02-17T03:15:22;101366.0;;;25.66;22.08
48530;BME280;34927;37.302;-121.982;2023-02-17T03:16:27;101366.0;;;25.60;22.25
48530;BME280;34927;37.302;-121.982;2023-02-17T03:17:32;101366.0;;;25.45;22.44
48530;BME280;34927;37.302;-121.982;2023-02-17T03:18:36;101368.0;;;25.18;22.75
48530;BME280;34927;37.302;-121.982;2023-02-17T03:19:42;101370.0;;;25.04;22.40
48530;BME280;34927;37.302;-121.982;2023-02-17T03:20:50;101374.0;;;24.78;22.56
48530;BME280;34927;37.302;-121.982;2023-02-17T03:22:00;101372.0;;;24.66;22.45
48530;BME280;34927;37.302;-121.982;2023-02-17T03:23:07;101375.0;;;24.55;22.67
48530;BME280;34927;37.302;-121.982;2023-02-17T03:24:12;101375.0;;;24.44;22.93
48530;BME280;34927;37.302;-121.982;2023-02-17T03:25:17;101378.0;;;24.52;22.94
48530;BME280;34927;37.302;-121.982;2023-02-17T03:26:21;101375.0;;;24.39;23.14
48530;BME280;34927;37.302;-121.982;2023-02-17T03:27:27;101375.0;;;24.31;23.22
48530;BME280;34927;37.302;-121.982;2023-02-17T03:28:31;101372.0;;;24.31;23.23
48530;BME280;34927;37.302;-121.982;2023-02-17T03:29:37;101374.0;;;24.37;23.24
48530;BME280;34927;37.302;-121.982;2023-02-17T03:30:42;101377.0;;;24.53;23.23
48530;BME280;34927;37.302;-121.982;2023-02-17T03:31:46;101373.0;;;24.77;23.05
48530;BME280;34927;37.302;-121.982;2023-02-17T03:32:52;101373.0;;;25.02;22.82
48530;BME280;34927;37.302;-121.982;2023-02-17T03:33:57;101371.0;;;25.24;22.65
48530;BME280;34927;37.302;-121.982;2023-02-17T03:35:02;101373.0;;;25.40;22.55
48530;BME280;34927;37.302;-121.982;2023-02-17T03:36:07;101373.0;;;25.29;22.59
48530;BME280;34927;37.302;-121.982;2023-02-17T03:37:12;101374.0;;;25.29;22.68
48530;BME280;34927;37.302;-121.982;2023-02-17T03:38:17;101374.0;;;25.14;22.79
48530;BME280;34927;37.302;-121.982;2023-02-17T03:39:22;101374.0;;;24.97;22.94
48530;BME280;34927;37.302;-121.982;2023-02-17T03:40:27;101375.0;;;24.77;23.23
48530;BME280;34927;37.302;-121.982;2023-02-17T03:41:31;101374.0;;;24.70;23.31
48530;BME280;34927;37.302;-121.982;2023-02-17T03:42:37;101373.0;;;24.45;23.72
48530;BME280;34927;37.302;-121.982;2023-02-17T03:43:41;101376.0;;;24.34;23.99
48530;BME280;34927;37.302;-121.982;2023-02-17T03:44:47;101377.0;;;24.24;24.00
48530;BME280;34927;37.302;-121.982;2023-02-17T03:45:52;101379.0;;;24.16;24.16
48530;BME280;34927;37.302;-121.982;2023-02-17T03:46:56;101378.0;;;24.07;24.31
48530;BME280;34927;37.302;-121.982;2023-02-17T03:48:01;101380.0;;;24.14;24.18
48530;BME280;34927;37.302;-121.982;2023-02-17T03:49:07;101380.0;;;24.14;24.09
48530;BME280;34927;37.302;-121.982;2023-02-17T03:50:11;101377.0;;;24.00;24.22
48530;BME280;34927;37.302;-121.982;2023-02-17T03:51:19;101376.0;;;23.97;24.17
48530;BME280;34927;37.302;-121.982;2023-02-17T03:52:27;101379.0;;;23.92;24.21
48530;BME280;34927;37.302;-121.982;2023-02-17T03:53:31;101382.0;;;23.86;24.25
48530;BME280;34927;37.302;-121.982;2023-02-17T03:54:37;101382.0;;;23.75;24.38
48530;BME280;34927;37.302;-121.982;2023-02-17T03:55:42;101386.0;;;23.89;24.32
48530;BME280;34927;37.302;-121.982;2023-02-17T03:56:47;101383.0;;;24.07;24.20
48530;BME280;34927;37.302;-121.982;2023-02-17T03:57:51;101383.0;;;24.36;23.94
48530;BME280;34927;37.302;-121.982;2023-02-17T03:58:57;101387.0;;;24.58;23.67
48530;BME280;34927;37.302;-121.982;2023-02-17T04:00:02;101384.0;;;24.84;23.46
48530;BME280;34927;37.302;-121.982;2023-02-17T04:01:08;101382.0;;;25.03;23.27
48530;BME280;34927;37.302;-121.982;2023-02-17T04:02:12;101383.0;;;25.04;23.24
48530;BME280;34927;37.302;-121.982;2023-02-17T04:03:16;101385.0;;;24.96;23.31
48530;BME280;34927;37.302;-121.982;2023-02-17T04:04:21;101383.0;;;24.78;23.49
48530;BME280;34927;37.302;-121.982;2023-02-17T04:05:27;101387.0;;;24.67;23.65
48530;BME280;34927;37.302;-121.982;2023-02-17T04:06:32;101390.0;;;24.53;23.87
48530;BME280;34927;37.302;-121.982;2023-02-17T04:07:37;101390.0;;;24.49;23.85
48530;BME280;34927;37.302;-121.982;2023-02-17T04:08:41;101390.0;;;24.24;24.08
48530;BME280;34927;37.302;-121.982;2023-02-17T04:09:47;101389.0;;;24.13;24.18
48530;BME280;34927;37.302;-121.982;2023-02-17T04:10:53;101388.0;;;24.01;24.23
48530;BME280;34927;37.302;-121.982;2023-02-17T04:11:57;101389.0;;;23.85;24.47
48530;BME280;34927;37.302;-121.982;2023-02-17T04:13:02;101392.0;;;23.70;24.71
48530;BME280;34927;37.302;-121.982;2023-02-17T04:14:06;101393.0;;;23.72;24.67
48530;BME280;34927;37.302;-121.982;2023-02-17T04:15:12;101395.0;;;23.76;24.61
48530;BME280;34927;37.302;-121.982;2023-02-17T04:16:16;101395.0;;;23.68;24.81
48530;BME280;34927;37.302;-121.982;2023-02-17T04:17:22;101396.0;;;23.51;24.97
48530;BME280;34927;37.302;-121.982;2023-02-17T04:18:27;101400.0;;;23.49;25.16
48530;BME280;34927;37.302;-121.982;2023-02-17T04:19:32;101400.0;;;23.46;25.14
48530;BME280;34927;37.302;-121.982;2023-02-17T04:20:36;101401.0;;;23.56;24.96
48530;BME280;34927;37.302;-121.982;2023-02-17T04:21:42;101401.0;;;23.48;25.12
48530;BME280;34927;37.302;-121.982;2023-02-17T04:22:46;101399.0;;;23.31;25.42
48530;BME280;34927;37.302;-121.982;2023-02-17T04:23:52;101398.0;;;23.46;25.18
48530;BME280;34927;37.302;-121.982;2023-02-17T04:24:56;101400.0;;;23.54;25.56
48530;BME280;34927;37.302;-121.982;2023-02-17T04:26:02;101401.0;;;23.79;25.50
48530;BME280;34927;37.302;-121.982;2023-02-17T04:27:06;101403.0;;;24.07;25.39
48530;BME280;34927;37.302;-121.982;2023-02-17T04:28:12;101401.0;;;24.35;25.22
48530;BME280;34927;37.302;-121.982;2023-02-17T04:29:17;101405.0;;;24.58;25.19
48530;BME280;34927;37.302;-121.982;2023-02-17T04:30:22;101403.0;;;24.66;25.09
48530;BME280;34927;37.302;-121.982;2023-02-17T04:31:26;101404.0;;;24.69;25.28
48530;BME280;34927;37.302;-121.982;2023-02-17T04:32:32;101408.0;;;24.59;25.19
48530;BME280;34927;37.302;-121.982;2023-02-17T04:33:36;101407.0;;;24.42;25.59
48530;BME280;34927;37.302;-121.982;2023-02-17T04:34:41;101407.0;;;24.36;25.51
48530;BME280;34927;37.302;-121.982;2023-02-17T04:35:47;101407.0;;;24.27;25.39
48530;BME280;34927;37.302;-121.982;2023-02-17T04:36:51;101405.0;;;24.21;25.65
48530;BME280;34927;37.302;-121.982;2023-02-17T04:37:57;101402.0;;;23.99;26.11
48530;BME280;34927;37.302;-121.982;2023-02-17T04:39:02;101401.0;;;23.95;25.93
48530;BME280;34927;37.302;-121.982;2023-02-17T04:40:07;101401.0;;;23.84;26.19
48530;BME280;34927;37.302;-121.982;2023-02-17T04:41:12;101401.0;;;23.52;27.64
48530;BME280;34927;37.302;-121.982;2023-02-17T04:42:17;101401.0;;;23.59;27.05
48530;BME280;34927;37.302;-121.982;2023-02-17T04:43:22;101402.0;;;23.47;27.05
48530;BME280;34927;37.302;-121.982;2023-02-17T04:44:26;101401.0;;;23.55;26.74
48530;BME280;34927;37.302;-121.982;2023-02-17T04:45:33;101402.0;;;23.52;27.01
48530;BME280;34927;37.302;-121.982;2023-02-17T04:46:37;101402.0;;;23.51;26.56
48530;BME280;34927;37.302;-121.982;2023-02-17T04:47:42;101402.0;;;23.73;26.39
48530;BME280;34927;37.302;-121.982;2023-02-17T04:48:46;101407.0;;;23.92;26.17
48530;BME280;34927;37.302;-121.982;2023-02-17T04:49:52;101407.0;;;24.19;25.84
48530;BME280;34927;37.302;-121.982;2023-02-17T04:50:56;101409.0;;;24.42;25.53
48530;BME280;34927;37.302;-121.982;2023-02-17T04:52:01;101410.0;;;24.71;25.21
48530;BME280;34927;37.302;-121.982;2023-02-17T04:53:08;101409.0;;;24.90;24.90
48530;BME280;34927;37.302;-121.982;2023-02-17T04:54:11;101409.0;;;24.91;24.82
48530;BME280;34927;37.302;-121.982;2023-02-17T04:55:17;101410.0;;;24.78;24.96
48530;BME280;34927;37.302;-121.982;2023-02-17T04:56:21;101410.0;;;24.67;25.17
48530;BME280;34927;37.302;-121.982;2023-02-17T04:57:27;101410.0;;;24.42;25.55
48530;BME280;34927;37.302;-121.982;2023-02-17T04:58:31;101411.0;;;24.22;25.44
48530;BME280;34927;37.302;-121.982;2023-02-17T04:59:37;101416.0;;;24.14;25.29
48530;BME280;34927;37.302;-121.982;2023-02-17T05:00:41;101416.0;;;24.09;25.28
48530;BME280;34927;37.302;-121.982;2023-02-17T05:01:46;101415.0;;;23.85;25.63
48530;BME280;34927;37.302;-121.982;2023-02-17T05:02:52;101415.0;;;23.85;25.66
48530;BME280;34927;37.302;-121.982;2023-02-17T05:03:57;101414.0;;;23.68;25.90
48530;BME280;34927;37.302;-121.982;2023-02-17T05:05:01;101412.0;;;23.45;26.26
48530;BME280;34927;37.302;-121.982;2023-02-17T05:06:08;101417.0;;;23.40;26.28
48530;BME280;34927;37.302;-121.982;2023-02-17T05:07:11;101420.0;;;23.31;26.42
48530;BME280;34927;37.302;-121.982;2023-02-17T05:08:16;101425.0;;;23.29;26.40
48530;BME280;34927;37.302;-121.982;2023-02-17T05:09:21;101424.0;;;23.21;26.37
48530;BME280;34927;37.302;-121.982;2023-02-17T05:10:27;101421.0;;;23.57;26.08
48530;BME280;34927;37.302;-121.982;2023-02-17T05:11:31;101422.0;;;23.81;25.94
48530;BME280;34927;37.302;-121.982;2023-02-17T05:12:37;101425.0;;;24.11;25.60
48530;BME280;34927;37.302;-121.982;2023-02-17T05:13:41;101424.0;;;24.41;25.22
48530;BME280;34927;37.302;-121.982;2023-02-17T05:14:47;101423.0;;;24.63;24.97
48530;BME280;34927;37.302;-121.982;2023-02-17T05:15:52;101423.0;;;24.87;24.64
48530;BME280;34927;37.302;-121.982;2023-02-17T05:16:56;101422.0;;;24.98;24.49
48530;BME280;34927;37.302;-121.982;2023-02-17T05:18:02;101426.0;;;24.83;24.55
48530;BME280;34927;37.302;-121.982;2023-02-17T05:19:07;101426.0;;;24.70;24.74
48530;BME280;34927;37.302;-121.982;2023-02-17T05:20:12;101427.0;;;24.47;25.06
48530;BME280;34927;37.302;-121.982;2023-02-17T05:21:16;101428.0;;;24.27;25.25
48530;BME280;34927;37.302;-121.982;2023-02-17T05:22:27;101429.0;;;24.23;25.08
48530;BME280;34927;37.302;-121.982;2023-02-17T05:23:32;101430.0;;;24.11;25.20
48530;BME280;34927;37.302;-121.982;2023-02-17T05:24:36;101430.0;;;24.08;25.08
48530;BME280;34927;37.302;-121.982;2023-02-17T05:25:42;101426.0;;;23.78;25.54
48530;BME280;34927;37.302;-121.982;2023-02-17T05:26:46;101428.0;;;23.64;25.70
48530;BME280;34927;37.302;-121.982;2023-02-17T05:27:51;101426.0;;;23.62;25.69
48530;BME280;34927;37.302;-121.982;2023-02-17T05:28:57;101425.0;;;23.46;25.93
48530;BME280;34927;37.302;-121.982;2023-02-17T05:30:02;101424.0;;;23.38;26.09
48530;BME280;34927;37.302;-121.982;2023-02-17T05:31:07;101425.0;;;23.32;26.21
48530;BME280;34927;37.302;-121.982;2023-02-17T05:32:12;101426.0;;;23.22;26.32
48530;BME280;34927;37.302;-121.982;2023-02-17T05:33:17;101426.0;;;23.20;26.47
48530;BME280;34927;37.302;-121.982;2023-02-17T05:34:21;101423.0;;;23.39;26.45
48530;BME280;34927;37.302;-121.982;2023-02-17T05:35:27;101422.0;;;23.66;26.25
48530;BME280;34927;37.302;-121.982;2023-02-17T05:36:32;101424.0;;;23.94;25.91
48530;BME280;34927;37.302;-121.982;2023-02-17T05:37:36;101426.0;;;24.24;25.59
48530;BME280;34927;37.302;-121.982;2023-02-17T05:38:42;101424.0;;;24.45;25.26
48530;BME280;34927;37.302;-121.982;2023-02-17T05:39:46;101428.0;;;24.70;25.05
48530;BME280;34927;37.302;-121.982;2023-02-17T05:40:52;101431.0;;;24.84;24.89
48530;BME280;34927;37.302;-121.982;2023-02-17T05:41:56;101435.0;;;24.80;24.89